Time;durP1;ratioP1;P1;durP2;ratioP2;P2;SDS_P1;SDS_P2;PMS_P1;PMS_P2;Temp;Humidity;BMP_temperature;BMP_pressure;BME280_temperature;BME280_humidity;BME280_pressure;Samples;Min_cycle;Max_cycle;Signal;HPM_P1;HPM_P2
2021/10/26 00:02:18;;;;;;;85.50;22.02;;;;;;;;;;4990581;28;20748;-94
2021/10/26 00:04:44;;;;;;;88.07;22.63;;;;;;;;;;4989571;28;20206;-95
2021/10/26 00:07:11;;;;;;;91.35;23.10;;;;;;;;;;4989003;28;20204;-94
2021/10/26 00:09:37;;;;;;;86.35;22.10;;;;;;;;;;4991057;28;20208;-95
2021/10/26 00:12:05;;;;;;;84.68;21.15;;;;;;;;;;4991925;28;20226;-95
2021/10/26 00:14:31;;;;;;;83.95;21.55;;;;;;;;;;4992140;28;20208;-94
2021/10/26 00:16:58;;;;;;;86.57;21.48;;;;;;;;;;4990658;28;20199;-94
2021/10/26 00:19:26;;;;;;;87.03;22.02;;;;;;;;;;4991748;28;20203;-94
2021/10/26 00:21:52;;;;;;;84.68;21.25;;;;;;;;;;4991524;28;20229;-95
2021/10/26 00:24:19;;;;;;;83.20;20.80;;;;;;;;;;4990267;28;20223;-94
2021/10/26 00:26:45;;;;;;;81.68;19.98;;;;;;;;;;4994682;28;20215;-94
2021/10/26 00:29:12;;;;;;;86.45;20.10;;;;;;;;;;4994839;28;20208;-94
2021/10/26 00:31:39;;;;;;;83.40;21.30;;;;;;;;;;4992994;28;20224;-94
2021/10/26 00:34:06;;;;;;;86.55;20.30;;;;;;;;;;4989543;28;20662;-94
2021/10/26 00:36:35;;;;;;;85.97;21.17;;;;;;;;;;4989767;28;20230;-94
2021/10/26 00:39:01;;;;;;;82.18;19.58;;;;;;;;;;4989146;28;20200;-94
2021/10/26 00:41:28;;;;;;;84.88;21.08;;;;;;;;;;4988207;28;20204;-93
2021/10/26 00:43:54;;;;;;;85.18;21.45;;;;;;;;;;4988605;28;20203;-94
2021/10/26 00:46:28;;;;;;;81.30;19.63;;;;;;;;;;4988455;28;20206;-94
2021/10/26 00:48:54;;;;;;;83.35;19.50;;;;;;;;;;4989573;28;20232;-94
2021/10/26 00:51:21;;;;;;;84.20;20.65;;;;;;;;;;4990065;28;20208;-93
2021/10/26 00:53:49;;;;;;;80.25;19.40;;;;;;;;;;4986641;28;20227;-95
2021/10/26 00:56:16;;;;;;;80.93;18.88;;;;;;;;;;4989669;28;20213;-94
2021/10/26 00:58:42;;;;;;;85.95;21.17;;;;;;;;;;4989559;28;20582;-94
2021/10/26 01:01:09;;;;;;;79.85;19.38;;;;;;;;;;4988458;28;20204;-94
2021/10/26 01:03:35;;;;;;;81.88;18.55;;;;;;;;;;4988955;28;20205;-94
2021/10/26 01:06:02;;;;;;;81.70;19.20;;;;;;;;;;4990220;28;20212;-93
2021/10/26 01:08:29;;;;;;;82.50;19.88;;;;;;;;;;4988882;28;20209;-93
2021/10/26 01:10:57;;;;;;;80.88;19.02;;;;;;;;;;4989664;28;20195;-92
2021/10/26 01:13:25;;;;;;;81.82;18.95;;;;;;;;;;4988856;28;20225;-93
2021/10/26 01:15:54;;;;;;;82.88;20.20;;;;;;;;;;4988927;28;20214;-93
2021/10/26 01:18:21;;;;;;;87.20;20.50;;;;;;;;;;4988230;28;20655;-92
2021/10/26 01:20:49;;;;;;;79.00;18.63;;;;;;;;;;4988833;28;20207;-93
2021/10/26 01:23:15;;;;;;;89.72;22.10;;;;;;;;;;4988856;28;20286;-92
2021/10/26 01:25:42;;;;;;;86.00;20.50;;;;;;;;;;4987077;28;20567;-92
2021/10/26 01:28:08;;;;;;;90.28;21.40;;;;;;;;;;4987802;28;20209;-92
2021/10/26 01:30:35;;;;;;;88.45;21.90;;;;;;;;;;4989351;28;20208;-92
2021/10/26 01:33:02;;;;;;;86.20;21.33;;;;;;;;;;4988909;28;20224;-92
2021/10/26 01:35:29;;;;;;;86.47;21.90;;;;;;;;;;4989544;28;20207;-93
2021/10/26 01:37:57;;;;;;;92.13;23.42;;;;;;;;;;4988943;28;20213;-92
2021/10/26 01:40:23;;;;;;;88.15;21.02;;;;;;;;;;4988432;28;20287;-93
2021/10/26 01:42:51;;;;;;;85.82;19.88;;;;;;;;;;4988438;28;20300;-93
2021/10/26 01:45:18;;;;;;;83.78;20.60;;;;;;;;;;4988264;28;20207;-92
2021/10/26 01:47:44;;;;;;;84.85;20.83;;;;;;;;;;4989140;28;20244;-92
2021/10/26 01:50:12;;;;;;;88.30;20.85;;;;;;;;;;4989559;28;20206;-92
2021/10/26 01:52:39;;;;;;;87.72;20.98;;;;;;;;;;4991257;28;20235;-92
2021/10/26 01:55:08;;;;;;;86.65;20.50;;;;;;;;;;4991567;28;20226;-93
2021/10/26 01:57:35;;;;;;;83.88;18.23;;;;;;;;;;4991387;28;20348;-92
2021/10/26 02:00:05;;;;;;;78.70;17.58;;;;;;;;;;4990532;28;20218;-90
2021/10/26 02:02:31;;;;;;;85.32;19.27;;;;;;;;;;4992187;28;20200;-90
2021/10/26 02:04:58;;;;;;;82.03;19.10;;;;;;;;;;4992617;28;20198;-91
2021/10/26 02:07:24;;;;;;;88.35;20.48;;;;;;;;;;4989689;28;20224;-92
2021/10/26 02:09:51;;;;;;;86.43;21.38;;;;;;;;;;4988123;28;20713;-91
2021/10/26 02:12:20;;;;;;;88.97;20.15;;;;;;;;;;4990170;28;20228;-92
2021/10/26 02:14:46;;;;;;;88.63;19.40;;;;;;;;;;4991226;28;20212;-92
2021/10/26 02:17:13;;;;;;;82.53;18.75;;;;;;;;;;4992277;28;20219;-91
2021/10/26 02:19:39;;;;;;;83.82;18.65;;;;;;;;;;4991645;28;20235;-92
2021/10/26 02:22:06;;;;;;;85.32;20.80;;;;;;;;;;4997679;28;20235;-91
2021/10/26 02:24:32;;;;;;;82.63;18.70;;;;;;;;;;5000830;28;20211;-92
2021/10/26 02:26:59;;;;;;;83.97;20.00;;;;;;;;;;5000475;28;20274;-92
2021/10/26 02:29:27;;;;;;;85.70;20.63;;;;;;;;;;5001049;28;20209;-93
2021/10/26 02:31:53;;;;;;;84.80;19.77;;;;;;;;;;5001650;28;20312;-92
2021/10/26 02:34:20;;;;;;;83.85;19.55;;;;;;;;;;5001741;28;20222;-91
2021/10/26 02:36:47;;;;;;;82.60;19.15;;;;;;;;;;5002046;28;20207;-91
2021/10/26 02:39:14;;;;;;;81.68;19.83;;;;;;;;;;5001133;28;20738;-92
2021/10/26 02:41:41;;;;;;;85.10;20.30;;;;;;;;;;4999884;28;20203;-91
2021/10/26 02:44:07;;;;;;;84.25;20.00;;;;;;;;;;5001110;28;20195;-91
2021/10/26 02:46:35;;;;;;;86.07;22.50;;;;;;;;;;5001667;28;20731;-91
2021/10/26 02:49:02;;;;;;;89.35;21.27;;;;;;;;;;5001614;28;20646;-91
2021/10/26 02:51:28;;;;;;;80.68;18.65;;;;;;;;;;5001573;28;20267;-92
2021/10/26 02:53:55;;;;;;;78.65;18.33;;;;;;;;;;5001227;28;20234;-92
2021/10/26 02:56:21;;;;;;;85.13;20.80;;;;;;;;;;5001672;28;20195;-92
2021/10/26 02:58:48;;;;;;;82.88;19.17;;;;;;;;;;5000614;28;20234;-92
2021/10/26 03:01:15;;;;;;;86.97;20.70;;;;;;;;;;4999922;28;20203;-91
2021/10/26 03:03:43;;;;;;;83.35;19.15;;;;;;;;;;4999752;28;20229;-92
2021/10/26 03:06:09;;;;;;;80.70;19.52;;;;;;;;;;5001038;28;20202;-92
2021/10/26 03:08:36;;;;;;;84.18;19.73;;;;;;;;;;5001413;28;20222;-91
2021/10/26 03:11:02;;;;;;;84.78;19.52;;;;;;;;;;5001256;28;20221;-91
2021/10/26 03:13:29;;;;;;;87.20;20.92;;;;;;;;;;5000777;28;20228;-91
2021/10/26 03:15:55;;;;;;;89.22;21.30;;;;;;;;;;4999246;28;20252;-91
2021/10/26 03:18:22;;;;;;;85.43;21.00;;;;;;;;;;4998089;28;20258;-91
2021/10/26 03:20:50;;;;;;;86.85;20.45;;;;;;;;;;5000897;28;20203;-92
2021/10/26 03:23:16;;;;;;;83.70;19.98;;;;;;;;;;5000128;28;20233;-91
2021/10/26 03:25:43;;;;;;;82.85;20.30;;;;;;;;;;5000571;28;20277;-91
2021/10/26 03:28:10;;;;;;;88.47;21.48;;;;;;;;;;5000491;28;20214;-91
2021/10/26 03:30:36;;;;;;;88.63;20.95;;;;;;;;;;5000023;28;20221;-91
2021/10/26 03:33:04;;;;;;;87.10;19.17;;;;;;;;;;4999435;28;20223;-91
2021/10/26 03:35:31;;;;;;;86.38;20.48;;;;;;;;;;4997970;28;20211;-91
2021/10/26 03:37:59;;;;;;;87.00;21.27;;;;;;;;;;4998102;28;20572;-92
2021/10/26 03:40:25;;;;;;;91.72;21.80;;;;;;;;;;4999551;28;20763;-92
2021/10/26 03:42:51;;;;;;;86.78;21.40;;;;;;;;;;4999662;28;20245;-91
2021/10/26 03:45:18;;;;;;;85.88;19.75;;;;;;;;;;4999318;28;20270;-91
2021/10/26 03:47:45;;;;;;;89.63;20.77;;;;;;;;;;4999829;28;20298;-91
2021/10/26 03:50:12;;;;;;;91.20;23.95;;;;;;;;;;5000564;28;20199;-90
2021/10/26 03:52:39;;;;;;;92.35;24.30;;;;;;;;;;4999683;28;20242;-91
2021/10/26 03:55:08;;;;;;;88.85;22.13;;;;;;;;;;4998513;28;20581;-91
2021/10/26 03:57:34;;;;;;;86.22;21.38;;;;;;;;;;4997834;28;20225;-90
2021/10/26 04:00:01;;;;;;;85.03;21.55;;;;;;;;;;5000288;28;20203;-90
2021/10/26 04:02:29;;;;;;;86.40;21.73;;;;;;;;;;5000212;28;20223;-90
2021/10/26 04:04:59;;;;;;;89.35;19.85;;;;;;;;;;4999588;28;20289;-91
2021/10/26 04:07:26;;;;;;;89.13;21.35;;;;;;;;;;4999664;28;20196;-91
2021/10/26 04:09:57;;;;;;;89.13;21.40;;;;;;;;;;5000636;28;20199;-90
2021/10/26 04:12:25;;;;;;;89.82;24.50;;;;;;;;;;5000457;28;20776;-91
2021/10/26 04:14:55;;;;;;;94.70;23.77;;;;;;;;;;4999129;28;20211;-90
2021/10/26 04:17:21;;;;;;;88.97;22.38;;;;;;;;;;5000222;28;20290;-90
2021/10/26 04:19:48;;;;;;;92.32;23.13;;;;;;;;;;5002762;28;20209;-90
2021/10/26 04:22:15;;;;;;;86.63;22.10;;;;;;;;;;4995666;28;20226;-91
2021/10/26 04:24:42;;;;;;;90.47;22.67;;;;;;;;;;4990857;28;20195;-90
2021/10/26 04:27:09;;;;;;;93.15;24.02;;;;;;;;;;4988712;28;20685;-90
2021/10/26 04:29:37;;;;;;;90.05;22.50;;;;;;;;;;4988915;28;20207;-90
2021/10/26 04:32:03;;;;;;;88.47;21.50;;;;;;;;;;4989361;28;20231;-90
2021/10/26 04:34:30;;;;;;;95.75;23.27;;;;;;;;;;4988207;28;20288;-91
2021/10/26 04:36:57;;;;;;;89.50;22.27;;;;;;;;;;4985994;28;20213;-89
2021/10/26 04:39:23;;;;;;;85.32;21.40;;;;;;;;;;4988430;28;20206;-89
2021/10/26 04:41:50;;;;;;;88.00;22.50;;;;;;;;;;4989942;28;20203;-88
2021/10/26 04:44:16;;;;;;;94.38;23.67;;;;;;;;;;4988587;28;20203;-89
2021/10/26 04:46:44;;;;;;;98.07;23.83;;;;;;;;;;4987599;28;20218;-89
2021/10/26 04:49:11;;;;;;;102.50;26.48;;;;;;;;;;4988818;28;20765;-89
2021/10/26 04:51:37;;;;;;;132.73;32.33;;;;;;;;;;4990182;28;20275;-88
2021/10/26 04:54:04;;;;;;;185.77;33.65;;;;;;;;;;4990006;28;20239;-89
2021/10/26 04:56:30;;;;;;;106.40;27.85;;;;;;;;;;4990576;28;20211;-88
2021/10/26 04:58:57;;;;;;;116.93;30.58;;;;;;;;;;4990052;28;20207;-89
2021/10/26 05:01:23;;;;;;;113.78;30.55;;;;;;;;;;4989305;28;20205;-89
2021/10/26 05:03:51;;;;;;;124.47;31.48;;;;;;;;;;4988858;28;20203;-89
2021/10/26 05:06:18;;;;;;;124.13;30.75;;;;;;;;;;4988232;28;20258;-89
2021/10/26 05:08:45;;;;;;;109.07;30.15;;;;;;;;;;4987358;28;20199;-89
2021/10/26 05:11:12;;;;;;;114.07;30.95;;;;;;;;;;4988934;28;20286;-89
2021/10/26 05:13:38;;;;;;;117.78;30.40;;;;;;;;;;4988200;28;20274;-90
2021/10/26 05:16:05;;;;;;;120.07;30.85;;;;;;;;;;4988052;28;20204;-89
2021/10/26 05:18:35;;;;;;;114.78;30.48;;;;;;;;;;4988396;28;20219;-90
2021/10/26 05:21:05;;;;;;;103.82;27.95;;;;;;;;;;4990927;28;20235;-90
2021/10/26 05:23:31;;;;;;;113.05;30.10;;;;;;;;;;4999317;28;20217;-90
2021/10/26 05:25:58;;;;;;;108.10;29.60;;;;;;;;;;4999166;28;20231;-90
2021/10/26 05:28:24;;;;;;;109.25;30.60;;;;;;;;;;5002900;28;20251;-89
2021/10/26 05:30:52;;;;;;;115.28;34.03;;;;;;;;;;5003271;28;20211;-90
2021/10/26 05:33:18;;;;;;;109.00;31.15;;;;;;;;;;5002306;28;20584;-91
2021/10/26 05:35:45;;;;;;;114.20;32.88;;;;;;;;;;5001732;28;20235;-90
2021/10/26 05:38:12;;;;;;;114.00;30.98;;;;;;;;;;5002140;28;20203;-90
2021/10/26 05:40:39;;;;;;;121.20;33.17;;;;;;;;;;5001495;28;20208;-90
2021/10/26 05:43:05;;;;;;;135.30;33.95;;;;;;;;;;5001429;28;20243;-90
2021/10/26 05:45:32;;;;;;;199.63;39.33;;;;;;;;;;5000595;28;20218;-90
2021/10/26 05:47:58;;;;;;;188.57;40.90;;;;;;;;;;5000851;28;20277;-90
2021/10/26 05:50:25;;;;;;;349.45;43.72;;;;;;;;;;5003144;28;20207;-90
2021/10/26 05:52:51;;;;;;;337.63;42.22;;;;;;;;;;5004118;28;20235;-90
2021/10/26 05:55:22;;;;;;;352.40;44.33;;;;;;;;;;5010408;28;20204;-90
2021/10/26 05:57:52;;;;;;;186.23;38.92;;;;;;;;;;5009965;28;20222;-90
2021/10/26 06:00:19;;;;;;;334.20;46.38;;;;;;;;;;5008267;28;20193;-90
2021/10/26 06:02:45;;;;;;;248.75;41.05;;;;;;;;;;5005800;28;20200;-91
2021/10/26 06:05:12;;;;;;;275.40;44.22;;;;;;;;;;5007246;28;20222;-91
2021/10/26 06:07:38;;;;;;;141.13;36.15;;;;;;;;;;5007631;28;20200;-91
2021/10/26 06:10:07;;;;;;;168.65;40.25;;;;;;;;;;5006403;28;20235;-90
2021/10/26 06:12:39;;;;;;;148.82;39.03;;;;;;;;;;5010157;28;20219;-91
2021/10/26 06:15:07;;;;;;;144.60;41.25;;;;;;;;;;5009622;28;20242;-92
2021/10/26 06:17:34;;;;;;;221.45;56.35;;;;;;;;;;5009318;28;20198;-91
2021/10/26 06:20:00;;;;;;;154.30;45.70;;;;;;;;;;5009485;28;20200;-90
2021/10/26 06:22:27;;;;;;;165.05;42.25;;;;;;;;;;5009521;28;20234;-90
2021/10/26 06:24:53;;;;;;;190.63;45.10;;;;;;;;;;5009437;28;20219;-90
2021/10/26 06:27:20;;;;;;;217.70;42.92;;;;;;;;;;5008769;28;20207;-91
2021/10/26 06:29:49;;;;;;;178.43;48.63;;;;;;;;;;5009623;28;20728;-90
2021/10/26 06:32:15;;;;;;;188.73;44.30;;;;;;;;;;5009540;28;20209;-89
2021/10/26 06:34:42;;;;;;;274.67;46.50;;;;;;;;;;5008915;28;20223;-92
2021/10/26 06:37:08;;;;;;;149.27;38.95;;;;;;;;;;5007561;28;20209;-91
2021/10/26 06:39:35;;;;;;;205.85;42.30;;;;;;;;;;5007857;28;20208;-90
2021/10/26 06:42:01;;;;;;;249.75;45.17;;;;;;;;;;5010194;28;20234;-90
2021/10/26 06:44:29;;;;;;;251.48;47.35;;;;;;;;;;5008955;28;20207;-91
2021/10/26 06:46:57;;;;;;;181.85;41.83;;;;;;;;;;5008202;28;20250;-91
2021/10/26 06:49:24;;;;;;;205.55;44.30;;;;;;;;;;5009449;28;20194;-91
2021/10/26 06:51:50;;;;;;;137.18;41.83;;;;;;;;;;5009745;28;20195;-91
2021/10/26 06:54:17;;;;;;;225.25;44.30;;;;;;;;;;5003065;28;20227;-91
2021/10/26 06:56:43;;;;;;;219.93;44.97;;;;;;;;;;5001327;28;20264;-90
2021/10/26 06:59:10;;;;;;;216.40;45.55;;;;;;;;;;5000582;28;20240;-91
2021/10/26 07:01:36;;;;;;;181.18;41.72;;;;;;;;;;5002537;28;20212;-90
2021/10/26 07:04:08;;;;;;;198.07;44.30;;;;;;;;;;5003504;28;20223;-91
2021/10/26 07:06:35;;;;;;;162.52;41.55;;;;;;;;;;4999992;28;20200;-93
2021/10/26 07:09:02;;;;;;;237.93;43.53;;;;;;;;;;5000061;28;20197;-92
2021/10/26 07:11:28;;;;;;;152.50;41.53;;;;;;;;;;5004401;28;20197;-92
2021/10/26 07:13:55;;;;;;;152.52;42.17;;;;;;;;;;4999606;28;20499;-91
2021/10/26 07:16:21;;;;;;;163.87;42.10;;;;;;;;;;4998011;28;20200;-91
2021/10/26 07:18:48;;;;;;;158.48;41.67;;;;;;;;;;4999259;28;20437;-91
2021/10/26 07:21:17;;;;;;;138.40;39.22;;;;;;;;;;4998938;28;20235;-92
2021/10/26 07:23:44;;;;;;;130.25;40.78;;;;;;;;;;4995639;28;20199;-93
2021/10/26 07:26:11;;;;;;;133.07;40.93;;;;;;;;;;4994393;28;20210;-93
2021/10/26 07:28:37;;;;;;;137.07;42.33;;;;;;;;;;4994626;28;20479;-93
2021/10/26 07:31:04;;;;;;;168.60;41.45;;;;;;;;;;4997795;28;20465;-92
2021/10/26 07:33:32;;;;;;;141.27;41.07;;;;;;;;;;4998228;28;20596;-93
2021/10/26 07:36:02;;;;;;;171.67;43.60;;;;;;;;;;4996529;28;20481;-91
2021/10/26 07:38:31;;;;;;;156.33;42.60;;;;;;;;;;4992998;28;20464;-91
2021/10/26 07:40:58;;;;;;;125.53;40.83;;;;;;;;;;4997389;28;20954;-92
2021/10/26 07:43:25;;;;;;;130.60;42.23;;;;;;;;;;4996374;28;20613;-93
2021/10/26 07:45:52;;;;;;;123.27;40.27;;;;;;;;;;4996743;28;20462;-92
2021/10/26 07:48:18;;;;;;;124.93;42.00;;;;;;;;;;4996280;28;20444;-93
2021/10/26 07:50:45;;;;;;;127.63;39.70;;;;;;;;;;4995823;28;20455;-91
2021/10/26 07:53:12;;;;;;;125.87;40.80;;;;;;;;;;4997186;28;20448;-92
2021/10/26 07:55:40;;;;;;;134.87;45.07;;;;;;;;;;4999724;28;20499;-92
2021/10/26 07:58:07;;;;;;;132.60;42.17;;;;;;;;;;5000076;28;20519;-93
2021/10/26 08:00:34;;;;;;;134.10;47.77;;;;;;;;;;5000731;28;20527;-92
2021/10/26 08:03:00;;;;;;;121.37;38.90;;;;;;;;;;5000011;28;20445;-92
2021/10/26 08:05:27;;;;;;;118.27;37.93;;;;;;;;;;5000484;28;20521;-92
2021/10/26 08:07:53;;;;;;;121.63;37.70;;;;;;;;;;4999386;28;20452;-91
2021/10/26 08:10:20;;;;;;;123.00;41.00;;;;;;;;;;4999845;28;20437;-93
2021/10/26 08:12:48;;;;;;;117.37;38.27;;;;;;;;;;4998959;28;20452;-93
2021/10/26 08:15:15;;;;;;;126.30;40.43;;;;;;;;;;4998686;28;20515;-91
2021/10/26 08:17:41;;;;;;;123.80;40.00;;;;;;;;;;4992916;28;20440;-90
2021/10/26 08:20:11;;;;;;;124.73;37.90;;;;;;;;;;5003850;28;20445;-91
2021/10/26 08:22:39;;;;;;;119.97;38.67;;;;;;;;;;4999772;28;20487;-95
2021/10/26 08:25:11;;;;;;;123.57;41.90;;;;;;;;;;4999785;28;20445;-94
2021/10/26 08:27:38;;;;;;;121.20;36.50;;;;;;;;;;5000447;28;20437;-92
2021/10/26 08:30:11;;;;;;;126.17;36.97;;;;;;;;;;4999623;28;20504;-93
2021/10/26 08:35:25;;;;;;;121.13;39.80;;;;;;;;;;4992599;28;20477;-93
2021/10/26 08:37:53;;;;;;;119.07;36.83;;;;;;;;;;5000328;28;20488;-96
2021/10/26 08:40:20;;;;;;;108.60;34.37;;;;;;;;;;4998974;28;20449;-95
2021/10/26 08:42:47;;;;;;;111.30;33.17;;;;;;;;;;5000413;28;21301;-95
2021/10/26 08:45:15;;;;;;;110.73;33.67;;;;;;;;;;4999452;28;20481;-96
2021/10/26 08:47:44;;;;;;;100.63;29.30;;;;;;;;;;5000136;28;20457;-95
2021/10/26 08:50:10;;;;;;;94.93;27.50;;;;;;;;;;4999552;28;20476;-94
2021/10/26 08:52:37;;;;;;;98.83;28.10;;;;;;;;;;4998617;28;20453;-96
2021/10/26 08:55:05;;;;;;;92.97;26.40;;;;;;;;;;4998072;28;20500;-95
2021/10/26 08:57:31;;;;;;;88.10;22.53;;;;;;;;;;4998656;28;20453;-94
2021/10/26 09:00:05;;;;;;;94.20;24.37;;;;;;;;;;4998593;28;20461;-93
2021/10/26 09:02:34;;;;;;;101.20;26.47;;;;;;;;;;4998354;28;20445;-93
2021/10/26 09:05:07;;;;;;;89.23;24.87;;;;;;;;;;5000466;28;20456;-96
2021/10/26 09:07:33;;;;;;;91.83;25.83;;;;;;;;;;4999675;28;20448;-95
2021/10/26 09:10:08;;;;;;;95.87;25.93;;;;;;;;;;4999315;28;20479;-95
2021/10/26 09:18:05;;;;;;;86.50;23.77;;;;;;;;;;4998222;28;20502;-94
2021/10/26 09:20:32;;;;;;;88.37;24.33;;;;;;;;;;4998918;28;20457;-94
2021/10/26 09:23:03;;;;;;;90.60;24.47;;;;;;;;;;4998929;28;20496;-93
2021/10/26 09:25:33;;;;;;;94.57;25.50;;;;;;;;;;5000502;28;20480;-95
2021/10/26 09:28:07;;;;;;;86.40;24.70;;;;;;;;;;4999615;28;20453;-93
2021/10/26 09:30:34;;;;;;;89.63;23.30;;;;;;;;;;4999061;28;20464;-95
2021/10/26 09:33:02;;;;;;;85.27;23.47;;;;;;;;;;5000304;28;20468;-94
2021/10/26 09:35:30;;;;;;;89.20;23.53;;;;;;;;;;4999874;28;20496;-95
2021/10/26 09:37:57;;;;;;;87.87;24.63;;;;;;;;;;5000249;28;20468;-94
2021/10/26 09:40:36;;;;;;;85.57;21.37;;;;;;;;;;4998917;28;20460;-93
2021/10/26 09:43:05;;;;;;;81.50;19.83;;;;;;;;;;4999552;28;20454;-95
2021/10/26 09:45:32;;;;;;;78.97;20.23;;;;;;;;;;4999528;28;20457;-95
2021/10/26 09:47:59;;;;;;;83.97;20.13;;;;;;;;;;4999647;28;20449;-94
2021/10/26 09:50:31;;;;;;;79.67;20.03;;;;;;;;;;5000628;28;20445;-94
2021/10/26 09:53:03;;;;;;;83.73;20.77;;;;;;;;;;4998117;28;20975;-95
2021/10/26 09:55:36;;;;;;;85.83;22.67;;;;;;;;;;5000156;28;20488;-94
2021/10/26 09:58:03;;;;;;;87.57;23.23;;;;;;;;;;4998975;28;20963;-92
2021/10/26 10:00:31;;;;;;;79.57;21.20;;;;;;;;;;4998563;28;20807;-94
2021/10/26 10:02:58;;;;;;;84.60;23.10;;;;;;;;;;4997838;28;20442;-93
2021/10/26 10:05:27;;;;;;;80.87;19.20;;;;;;;;;;4998898;28;20449;-94
2021/10/26 10:07:55;;;;;;;82.80;20.87;;;;;;;;;;4999095;28;20509;-93
2021/10/26 10:10:22;;;;;;;86.57;23.17;;;;;;;;;;4998502;28;20493;-93
2021/10/26 10:13:01;;;;;;;81.77;21.10;;;;;;;;;;5002953;28;20454;-93
2021/10/26 10:15:28;;;;;;;83.23;20.70;;;;;;;;;;5005164;28;20496;-93
2021/10/26 10:17:56;;;;;;;82.17;20.17;;;;;;;;;;5004702;28;20465;-92
2021/10/26 10:20:23;;;;;;;82.90;20.70;;;;;;;;;;5003885;28;20562;-94
2021/10/26 10:22:50;;;;;;;80.50;21.00;;;;;;;;;;4995875;28;20483;-93
2021/10/26 10:25:18;;;;;;;84.20;19.93;;;;;;;;;;4993730;28;20564;-93
2021/10/26 10:27:47;;;;;;;77.40;18.80;;;;;;;;;;4992835;28;20448;-93
2021/10/26 10:30:14;;;;;;;76.57;19.13;;;;;;;;;;4990733;28;20520;-94
2021/10/26 10:32:41;;;;;;;77.47;19.27;;;;;;;;;;4990406;28;20455;-93
2021/10/26 10:35:12;;;;;;;83.97;22.53;;;;;;;;;;4990746;28;20535;-94
2021/10/26 10:37:41;;;;;;;82.67;19.80;;;;;;;;;;4991217;28;20461;-95
2021/10/26 10:40:09;;;;;;;79.90;20.10;;;;;;;;;;4974661;28;20456;-94
2021/10/26 10:42:44;;;;;;;80.23;19.93;;;;;;;;;;4990278;28;20441;-96
2021/10/26 10:45:19;;;;;;;79.40;19.50;;;;;;;;;;4991499;28;20560;-94
2021/10/26 10:47:47;;;;;;;79.70;19.77;;;;;;;;;;4990899;28;20583;-94
2021/10/26 10:50:27;;;;;;;83.40;19.53;;;;;;;;;;4991844;28;20476;-94
2021/10/26 10:53:11;;;;;;;77.40;19.17;;;;;;;;;;4990797;28;20488;-94
2021/10/26 10:55:38;;;;;;;82.20;19.90;;;;;;;;;;4992286;28;20539;-95
2021/10/26 10:58:23;;;;;;;79.77;20.97;;;;;;;;;;4991993;28;20863;-93
2021/10/26 11:00:53;;;;;;;81.50;19.83;;;;;;;;;;4986035;28;20463;-94
2021/10/26 11:03:37;;;;;;;78.50;19.00;;;;;;;;;;4986361;28;20473;-95
2021/10/26 11:06:03;;;;;;;82.90;21.40;;;;;;;;;;4991325;28;20449;-92
2021/10/26 11:08:42;;;;;;;78.37;19.63;;;;;;;;;;4991583;28;20438;-95
2021/10/26 11:11:09;;;;;;;81.77;20.20;;;;;;;;;;4991333;28;20430;-94
2021/10/26 11:13:36;;;;;;;75.87;18.63;;;;;;;;;;4991376;28;20446;-95
2021/10/26 11:16:06;;;;;;;80.43;19.87;;;;;;;;;;4992193;28;20497;-92
2021/10/26 11:18:37;;;;;;;77.13;20.00;;;;;;;;;;4994616;28;20442;-93
2021/10/26 11:21:04;;;;;;;77.83;20.00;;;;;;;;;;4992048;28;20485;-95
2021/10/26 11:23:38;;;;;;;75.27;19.07;;;;;;;;;;5001580;28;20449;-94
2021/10/26 11:26:06;;;;;;;76.20;17.93;;;;;;;;;;5001603;28;20532;-94
2021/10/26 11:28:35;;;;;;;76.07;18.43;;;;;;;;;;5001949;28;20872;-94
2021/10/26 11:31:04;;;;;;;75.50;18.80;;;;;;;;;;5000677;28;20468;-94
2021/10/26 11:33:32;;;;;;;76.80;18.53;;;;;;;;;;5001210;28;20456;-93
2021/10/26 11:36:02;;;;;;;75.07;19.03;;;;;;;;;;4999287;28;20524;-93
2021/10/26 11:38:30;;;;;;;73.30;17.87;;;;;;;;;;5000977;28;20460;-92
2021/10/26 11:40:56;;;;;;;73.20;16.50;;;;;;;;;;5001294;28;20452;-94
2021/10/26 11:43:23;;;;;;;74.53;16.50;;;;;;;;;;5001974;28;21751;-92
2021/10/26 11:45:53;;;;;;;71.87;15.63;;;;;;;;;;5001188;28;20448;-93
2021/10/26 11:48:35;;;;;;;75.27;16.77;;;;;;;;;;5000492;28;20456;-94
2021/10/26 11:51:16;;;;;;;74.17;17.13;;;;;;;;;;4999747;28;20457;-94
2021/10/26 11:53:42;;;;;;;72.70;15.50;;;;;;;;;;5000633;28;20445;-94
2021/10/26 11:56:19;;;;;;;68.87;14.73;;;;;;;;;;5005632;28;20477;-94
2021/10/26 11:58:53;;;;;;;72.27;14.90;;;;;;;;;;5000659;28;20452;-95
2021/10/26 12:01:21;;;;;;;67.73;14.57;;;;;;;;;;5003332;28;20429;-94
2021/10/26 12:03:52;;;;;;;80.20;14.23;;;;;;;;;;5001753;28;20441;-95
2021/10/26 12:06:32;;;;;;;68.73;13.50;;;;;;;;;;5000791;28;20994;-96
2021/10/26 12:09:00;;;;;;;66.50;13.20;;;;;;;;;;4999198;28;20449;-96
2021/10/26 12:11:28;;;;;;;67.17;13.90;;;;;;;;;;4982504;28;20449;-94
2021/10/26 12:14:09;;;;;;;67.83;13.30;;;;;;;;;;5005038;28;20444;-93
2021/10/26 12:16:36;;;;;;;69.53;13.83;;;;;;;;;;5005096;28;20476;-96
2021/10/26 12:19:05;;;;;;;67.97;13.40;;;;;;;;;;5006268;28;20513;-96
2021/10/26 12:21:33;;;;;;;67.47;13.77;;;;;;;;;;4997707;28;20488;-94
2021/10/26 12:24:02;;;;;;;67.90;12.63;;;;;;;;;;4991126;28;20446;-96
2021/10/26 12:26:29;;;;;;;69.77;13.33;;;;;;;;;;4992523;28;20456;-96
2021/10/26 12:28:57;;;;;;;67.00;13.03;;;;;;;;;;4987944;28;20797;-95
2021/10/26 12:31:25;;;;;;;67.47;12.90;;;;;;;;;;4991706;28;20451;-94
2021/10/26 12:34:06;;;;;;;70.27;13.57;;;;;;;;;;4998381;28;20450;-95
2021/10/26 12:36:34;;;;;;;68.37;13.30;;;;;;;;;;4975984;28;20502;-96
2021/10/26 12:39:04;;;;;;;70.27;13.40;;;;;;;;;;4998751;28;20445;-95
2021/10/26 12:41:46;;;;;;;69.47;12.63;;;;;;;;;;4995678;28;20506;-96
2021/10/26 12:44:18;;;;;;;64.87;12.27;;;;;;;;;;4993712;28;20464;-96
2021/10/26 12:49:35;;;;;;;68.73;12.90;;;;;;;;;;4992930;28;20423;-96
2021/10/26 12:52:11;;;;;;;70.30;12.73;;;;;;;;;;4990440;28;20458;-95
2021/10/26 12:54:37;;;;;;;67.37;12.33;;;;;;;;;;4990981;28;20439;-96
2021/10/26 12:57:04;;;;;;;65.30;12.97;;;;;;;;;;4999112;23;20514;-95
2021/10/26 12:59:56;;;;;;;66.80;12.40;;;;;;;;;;5002260;28;20898;-96
2021/10/26 13:02:25;;;;;;;64.50;12.47;;;;;;;;;;5004564;28;21017;-95
2021/10/26 13:05:03;;;;;;;66.10;12.53;;;;;;;;;;5001294;28;20447;-96
2021/10/26 13:07:31;;;;;;;65.93;12.50;;;;;;;;;;5000106;28;20461;-95
2021/10/26 13:09:57;;;;;;;66.20;12.60;;;;;;;;;;5002342;28;20454;-93
2021/10/26 13:12:27;;;;;;;65.17;12.30;;;;;;;;;;5002004;28;20544;-96
2021/10/26 13:14:56;;;;;;;65.77;11.90;;;;;;;;;;5003355;28;20577;-93
2021/10/26 13:17:26;;;;;;;65.20;12.27;;;;;;;;;;5001853;28;20501;-92
2021/10/26 13:20:11;;;;;;;66.97;13.20;;;;;;;;;;5002933;28;20514;-94
2021/10/26 13:22:39;;;;;;;66.33;13.00;;;;;;;;;;4999606;28;20992;-94
2021/10/26 13:25:07;;;;;;;69.17;12.80;;;;;;;;;;4998967;28;20454;-93
2021/10/26 13:27:35;;;;;;;80.60;13.17;;;;;;;;;;4993383;28;20464;-95
2021/10/26 13:30:06;;;;;;;66.40;12.83;;;;;;;;;;4998816;28;20458;-94
2021/10/26 13:32:34;;;;;;;74.20;13.07;;;;;;;;;;4999544;28;20477;-93
2021/10/26 13:35:01;;;;;;;65.43;12.97;;;;;;;;;;4994143;28;20485;-94
2021/10/26 13:37:28;;;;;;;68.33;13.13;;;;;;;;;;4999675;28;20507;-94
2021/10/26 13:39:56;;;;;;;65.57;12.50;;;;;;;;;;4998008;28;20484;-93
2021/10/26 13:42:22;;;;;;;70.00;12.60;;;;;;;;;;4998398;28;20453;-95
2021/10/26 13:44:48;;;;;;;66.87;12.30;;;;;;;;;;4999782;28;20488;-94
2021/10/26 13:47:23;;;;;;;75.97;13.93;;;;;;;;;;4998024;28;20465;-95
2021/10/26 13:49:50;;;;;;;66.07;12.97;;;;;;;;;;4992592;28;20448;-94
2021/10/26 13:52:16;;;;;;;67.97;13.10;;;;;;;;;;5004725;28;20449;-93
2021/10/26 13:54:51;;;;;;;65.77;12.70;;;;;;;;;;5003378;28;20496;-93
2021/10/26 13:57:19;;;;;;;66.00;13.43;;;;;;;;;;4999258;28;20491;-93
2021/10/26 13:59:45;;;;;;;67.23;13.70;;;;;;;;;;4996205;28;20445;-94
2021/10/26 14:02:12;;;;;;;67.07;13.90;;;;;;;;;;4997041;28;20456;-96
2021/10/26 14:04:39;;;;;;;66.53;13.43;;;;;;;;;;5001579;28;20453;-94
2021/10/26 14:07:06;;;;;;;67.97;13.30;;;;;;;;;;5002699;28;20480;-94
2021/10/26 14:09:33;;;;;;;73.57;13.63;;;;;;;;;;5002166;28;20499;-94
2021/10/26 14:11:59;;;;;;;67.37;13.07;;;;;;;;;;5000599;28;20872;-94
2021/10/26 14:14:30;;;;;;;66.57;13.00;;;;;;;;;;4998295;28;20525;-93
2021/10/26 14:16:56;;;;;;;68.13;13.67;;;;;;;;;;4982879;28;20491;-95
2021/10/26 14:19:23;;;;;;;65.97;12.87;;;;;;;;;;5001210;28;20453;-95
2021/10/26 14:21:50;;;;;;;70.57;13.00;;;;;;;;;;5002876;28;20459;-93
2021/10/26 14:24:17;;;;;;;66.00;12.67;;;;;;;;;;5002678;28;20456;-95
2021/10/26 14:26:45;;;;;;;65.57;13.10;;;;;;;;;;5002033;28;20437;-94
2021/10/26 14:29:12;;;;;;;65.97;12.30;;;;;;;;;;5004945;28;20447;-94
2021/10/26 14:31:42;;;;;;;65.73;12.97;;;;;;;;;;5002039;28;20516;-93